Metar Cercanos

 

LEPA - Palma De Mallorc, Spain
Distance from station: ONO 38km
Actualización: Wed, 12-May-2021 12:00am CEST
Despejado
Despejado
 Viento del varies
Viento: varies 4 km/h
Temperatura: 13°C
Rocío: 10°C
Humedad: 82%
Barómetro: 1020 hPa
Resumen: Despejado
Visibility: greater than 10 km
2021/05/11 22:00 LEPA 112200Z VRB02KT CAVOK 13/10 Q1020 NOSIG
LEMH - Mahon/Menorca Is, Spain
Distance from station: ENE 105km
Actualización: Wed, 12-May-2021 12:00am CEST
Despejado
Despejado
 Viento del NNE
Viento: NNE 4 km/h
Temperatura: 12°C
Rocío: 9°C
Humedad: 82%
Barómetro: 1020 hPa
Resumen: Despejado
Visibility: greater than 10 km
2021/05/11 22:00 LEMH 112200Z 03002KT CAVOK 12/09 Q1020
 
LEIB - Ibiza/Es Codola, Spain
Distance from station: OSO 165km
Actualización: Wed, 12-May-2021 12:00am CEST
Despejado
Despejado
 Viento del SO
Viento: SO 19 km/h
Temperatura: 17°C
Rocío: 14°C
Humedad: 83%
Barómetro: 1020 hPa
Resumen: Despejado
Visibility: greater than 10 km
2021/05/11 22:00 LEIB 112200Z 23010KT 200V260 CAVOK 17/14 Q1020 NOSIG
LEBL - Barcelona Airpor, Spain
Distance from station: NNO 225km
Actualización: Wed, 12-May-2021 12:00am CEST
Few Clouds
Few Clouds
 Viento del NE
Viento: NE 7 km/h
Temperatura: 15°C
Rocío: 10°C
Humedad: 72%
Barómetro: 1019 hPa
Clouds: Few Clouds
Visibility: 10 km
Cloud details: Few Clouds 762 m
2021/05/11 22:00 LEBL 112200Z 04004KT 9999 FEW025 15/10 Q1019 NOSIG
 
LEVC - Valencia (civ/Mi, Spain
Distance from station: NO 188km
Actualización: Wed, 12-May-2021 12:00am CEST
Despejado
Despejado
 Viento del NO
Viento: NO 13 km/h
Temperatura: 17°C
Rocío: 3°C
Humedad: 39%
Barómetro: 1019 hPa
Resumen: Despejado
Visibility: greater than 10 km
2021/05/11 22:00 LEVC 112200Z 31007KT CAVOK 17/03 Q1019 NOSIG
LEGE - Gerona/Costa Bra, Spain
Distance from station: N 276km
Actualización: Wed, 12-May-2021 12:00am CEST
Despejado
Despejado
 Viento del calm
Viento: Calma
Temperatura: 7°C
Rocío: 7°C
Humedad: 100%
Barómetro: 1019 hPa
Resumen: Despejado
Visibility: greater than 10 km
2021/05/11 22:00 LEGE 112200Z 00000KT CAVOK 07/07 Q1019
 
LEAL - Alicante/El Alte, Spain
Distance from station: OSO 344km
Actualización: Wed, 12-May-2021 12:00am CEST
Despejado
Despejado
 Viento del OSO
Viento: OSO 6 km/h
Temperatura: 15°C
Rocío: 9°C
Humedad: 68%
Barómetro: 1020 hPa
Resumen: Despejado
Visibility: greater than 10 km
2021/05/11 22:00 LEAL 112200Z 25003KT CAVOK 15/09 Q1020 NOSIG
LEAM - Almeria Airport, Spain
Distance from station: SSO 56km
Actualización: Wed, 12-May-2021 12:00am CEST
Despejado
Despejado
 Viento del NE
Viento: NE 6 km/h
Temperatura: 16°C
Rocío: 11°C
Humedad: 72%
Barómetro: 1021 hPa
Resumen: Despejado
Visibility: greater than 10 km
2021/05/11 22:00 LEAM 112200Z AUTO 05003KT 020V080 CAVOK 16/11 Q1021
 
LEZG - Zaragoza (mil/Ci, Spain
Distance from station: NO 431km
Actualización: Wed, 12-May-2021 12:00am CEST
Few Clouds
Few Clouds
 Viento del OSO
Viento: OSO 6 km/h
Temperatura: 13°C
Rocío: 3°C
Humedad: 51%
Barómetro: 1019 hPa
Clouds: Few Clouds
Visibility: 10 km
Cloud details: Few Clouds 2438 m
2021/05/11 22:00 LEZG 112200Z 24003KT 210V290 9999 FEW080 13/03 Q1019
LEMD - Madrid/Barajas, Spain
Distance from station: ONO 234km
Actualización: Wed, 12-May-2021 12:00am CEST
Few Clouds
Few Clouds
 Viento del OSO
Viento: OSO 19 km/h
Temperatura: 14°C
Rocío: 3°C
Humedad: 48%
Barómetro: 1020 hPa
Clouds: Few Clouds
Visibility: 10 km
Cloud details: Few Clouds 2134 m
2021/05/11 22:00 LEMD 112200Z 24010KT 200V260 9999 FEW070 14/03 Q1020 NOSIG
 
LEGR - Granada Airport, Spain
Distance from station: OSO 62km
Actualización: Wed, 12-May-2021 12:00am CEST
Despejado
Despejado
 Viento del SSO
Viento: SSO 9 km/h
Temperatura: 12°C
Rocío: 6°C
Humedad: 67%
Barómetro: 1023 hPa
Clouds: Despejado
Visibility: 8 km
2021/05/11 22:00 LEGR 112200Z AUTO 20005KT 8000 NCD 12/06 Q1023
LEMG - Malaga (civ/Mil), Spain
Distance from station: OSO 227km
Actualización: Wed, 12-May-2021 12:00am CEST
Despejado
Despejado
 Viento del O
Viento: O 17 km/h
Temperatura: 19°C
Rocío: 6°C
Humedad: 43%
Barómetro: 1021 hPa
Resumen: Despejado
Visibility: greater than 10 km
2021/05/11 22:00 LEMG 112200Z 28009KT CAVOK 19/06 Q1021 NOSIG
 
LEZL - Sevilla (civ/Mil, Spain
Distance from station: S 318km
Actualización: Wed, 12-May-2021 12:00am CEST
Despejado
Despejado
 Viento del O
Viento: O 13 km/h
Temperatura: 16°C
Rocío: 9°C
Humedad: 63%
Barómetro: 1023 hPa
Resumen: Despejado
Visibility: greater than 10 km
2021/05/11 22:00 LEZL 112200Z 27007KT 230V300 CAVOK 16/09 Q1023 NOSIG
LEVT - Vitoria, Spain
Distance from station: NO 226km
Actualización: Wed, 12-May-2021 12:00am CEST
Few Clouds
Few Clouds
 Viento del varies
Viento: varies 4 km/h
Temperatura: 9°C
Rocío: 7°C
Humedad: 87%
Barómetro: 1018 hPa
Clouds: Few Clouds
Visibility: 10 km
Cloud details: Few Clouds 2134 m
2021/05/11 22:00 LEVT 112200Z VRB02KT 9999 FEW070 09/07 Q1018
 
LEBB - Bilbao/Sondica, Spain
Distance from station: NNO 235km
Actualización: Wed, 12-May-2021 12:00am CEST
Despejado
Despejado
 Viento del varies
Viento: varies 2 km/h
Temperatura: 12°C
Rocío: 7°C
Humedad: 72%
Barómetro: 1018 hPa
Resumen: Despejado
Visibility: greater than 10 km
2021/05/11 22:00 LEBB 112200Z AUTO VRB01KT CAVOK 12/07 Q1018
LESO - San Sebastian/Fu, Spain
Distance from station: N 231km
Actualización: Wed, 12-May-2021 12:00am CEST
Despejado
Despejado
 Viento del ESE
Viento: ESE 6 km/h
Temperatura: 13°C
Rocío: 7°C
Humedad: 67%
Barómetro: 1018 hPa
Resumen: Despejado
Visibility: greater than 10 km
2021/05/11 22:00 LESO 112200Z AUTO 12003KT CAVOK 13/07 Q1018
 
LEVD - Valladolid(Mil/C, Spain
Distance from station: ONO 239km
Actualización: Wed, 12-May-2021 12:00am CEST
Cubierto
Cubierto
 Viento del OSO
Viento: OSO 24 km/h
Temperatura: 10°C
Sensación frio: 7°C
Rocío: 4°C
Humedad: 67%
Barómetro: 1019 hPa
Clouds: Cubierto
Visibility: 10 km
Cloud details: Muy nuboso 1219 m
Cubierto 1494 m
2021/05/11 22:00 LEVD 112200Z AUTO 24013KT 9999 BKN040 OVC049 10/04 Q1019
LESA - Salamanca (civ/M, Spain
Distance from station: ONO 349km
Actualización: Wed, 12-May-2021 12:00am CEST
Despejado
Despejado
 Viento del SO
Viento: SO 17 km/h
Temperatura: 10°C
Sensación frio: 8°C
Rocío: 5°C
Humedad: 71%
Barómetro: 1020 hPa
Resumen: Despejado
Visibility: greater than 10 km
2021/05/11 22:00 LESA 112200Z AUTO 23009KT 200V260 CAVOK 10/05 Q1020
 
LEXJ - Santander/Paraya, Spain
Distance from station: NNO 247km
Actualización: Wed, 12-May-2021 12:00am CEST
Despejado
Despejado
 Viento del ESE
Viento: ESE 9 km/h
Temperatura: 13°C
Rocío: 7°C
Humedad: 67%
Barómetro: 1017 hPa
Resumen: Despejado
Visibility: greater than 10 km
2021/05/11 22:00 LEXJ 112200Z AUTO 11005KT 080V140 CAVOK 13/07 Q1017
LEAS - Asturias/Aviles, Spain
Distance from station: NO 214km
Actualización: Wed, 12-May-2021 12:00am CEST
Lluvia débil, Muy nuboso
Lluvia débil, Muy nuboso
 Viento del ESE
Viento: ESE 9 km/h
Temperatura: 11°C
Rocío: 9°C
Humedad: 88%
Barómetro: 1015 hPa
Resumen: Lluvia débil
Clouds: Muy nuboso
Visibility: 10 km
Cloud details: Few Clouds 1402 m
Muy nuboso 2012 m
Muy nuboso 2347 m
2021/05/11 22:00 LEAS 112200Z AUTO 11005KT 070V160 9999 -RA FEW046 BKN066 BKN077 11/09 Q1015
 
LECO - La Coruna/Alvedr, Spain
Distance from station: ONO 222km
Actualización: Wed, 12-May-2021 12:00am CEST
Light drizzle, Parcialmente nuboso
Light drizzle, Parcialmente nuboso
 Viento del S
Viento: S 19 km/h
Temperatura: 12°C
Rocío: 12°C
Humedad: 100%
Barómetro: 1012 hPa
Resumen: Light Drizzle
Clouds: Parcialmente nuboso
Visibility: 8 km
Cloud details: Few Clouds 671 m
Parcialmente nuboso 1463 m
2021/05/11 22:00 LECO 112200Z 17010KT 140V200 8000 -DZ FEW022 SCT048 12/12 Q1012 TEMPO RA
LEVX - Vigo/Peinador, Spain
Distance from station: O 214km
Actualización: Wed, 12-May-2021 12:00am CEST
Lluvia débil, Niebla, Cubierto
Lluvia débil, Niebla, Cubierto
 Viento del SSO
Viento: SSO 28 km/h
Temperatura: 11°C
Rocío: 11°C
Humedad: 100%
Barómetro: 1016 hPa
Resumen: Lluvia débil, Niebla
Clouds: Cubierto
Visibility: 0 km
Cloud details: Cubierto 30 m
2021/05/11 22:00 LEVX 112200Z 20015KT 180V240 0200 R19/1600D R01/0450D -RA FG VV001 11/11 Q1016 RERA TEMPO RA